Terminal Aerodrome Forecast
Issued by NWS Cleveland, OH

Home | Current Version | Previous Version | Graphics & Text | Print | Product List | Glossary On
Versions: 1 2 3 4 5 6 7 8 9 10 11 12 13 14 15 16 17 18 19 20 21 22 23 24 25 26 27 28 29
000
FTUS41 KCLE 261120
TAFCLE
TAF
KCLE 261120Z 2612/2718 12010KT P6SM OVC120
     FM261500 16012KT P6SM OVC045
     FM261800 18012KT 5SM -SHRA BR VCTS OVC025CB
      TEMPO 2620/2624 4SM -SHRA BR OVC035
     FM270000 16004KT 6SM BR SCT025 BKN045
     FM270600 22006KT 5SM BR BKN025
     FM271400 22006KT P6SM BKN035=

USA.gov is the U.S. government's official web portal to all federal, state and local government web resources and services.